sensor_id;sensor_type;location;lat;lon;timestamp;P1;durP1;ratioP1;P2;durP2;ratioP2
30533;SDS011;17318;52.390;9.754;2023-04-15T00:01:21;5.63;;;2.78;;
30533;SDS011;17318;52.390;9.754;2023-04-15T00:03:49;4.22;;;3.00;;
30533;SDS011;17318;52.390;9.754;2023-04-15T00:06:16;7.90;;;3.28;;
30533;SDS011;17318;52.390;9.754;2023-04-15T00:08:43;8.48;;;3.33;;
30533;SDS011;17318;52.390;9.754;2023-04-15T00:11:09;8.15;;;4.15;;
30533;SDS011;17318;52.390;9.754;2023-04-15T00:13:35;9.18;;;4.20;;
30533;SDS011;17318;52.390;9.754;2023-04-15T00:16:02;5.15;;;3.35;;
30533;SDS011;17318;52.390;9.754;2023-04-15T00:18:28;7.57;;;3.25;;
30533;SDS011;17318;52.390;9.754;2023-04-15T00:20:54;4.97;;;3.20;;
30533;SDS011;17318;52.390;9.754;2023-04-15T00:23:20;6.55;;;3.42;;
30533;SDS011;17318;52.390;9.754;2023-04-15T00:25:45;4.70;;;3.38;;
30533;SDS011;17318;52.390;9.754;2023-04-15T00:28:11;4.95;;;3.80;;
30533;SDS011;17318;52.390;9.754;2023-04-15T00:30:36;8.60;;;3.85;;
30533;SDS011;17318;52.390;9.754;2023-04-15T00:33:02;9.50;;;3.83;;
30533;SDS011;17318;52.390;9.754;2023-04-15T00:35:28;7.57;;;3.88;;
30533;SDS011;17318;52.390;9.754;2023-04-15T00:37:56;5.05;;;3.20;;
30533;SDS011;17318;52.390;9.754;2023-04-15T00:40:22;5.95;;;3.38;;
30533;SDS011;17318;52.390;9.754;2023-04-15T00:42:49;6.13;;;3.90;;
30533;SDS011;17318;52.390;9.754;2023-04-15T00:45:15;7.10;;;4.10;;
30533;SDS011;17318;52.390;9.754;2023-04-15T00:47:41;6.10;;;3.47;;
30533;SDS011;17318;52.390;9.754;2023-04-15T00:50:08;7.40;;;3.92;;
30533;SDS011;17318;52.390;9.754;2023-04-15T00:52:35;5.05;;;3.25;;
30533;SDS011;17318;52.390;9.754;2023-04-15T00:55:01;6.65;;;3.53;;
30533;SDS011;17318;52.390;9.754;2023-04-15T00:57:29;6.25;;;3.53;;
30533;SDS011;17318;52.390;9.754;2023-04-15T00:59:55;10.65;;;4.40;;
30533;SDS011;17318;52.390;9.754;2023-04-15T01:02:22;7.03;;;4.25;;
30533;SDS011;17318;52.390;9.754;2023-04-15T01:04:48;7.38;;;4.07;;
30533;SDS011;17318;52.390;9.754;2023-04-15T01:07:14;6.78;;;4.88;;
30533;SDS011;17318;52.390;9.754;2023-04-15T01:09:40;9.40;;;5.00;;
30533;SDS011;17318;52.390;9.754;2023-04-15T01:12:06;9.30;;;4.53;;
30533;SDS011;17318;52.390;9.754;2023-04-15T01:14:34;7.40;;;5.00;;
30533;SDS011;17318;52.390;9.754;2023-04-15T01:17:00;7.47;;;5.15;;
30533;SDS011;17318;52.390;9.754;2023-04-15T01:19:27;9.25;;;5.72;;
30533;SDS011;17318;52.390;9.754;2023-04-15T01:21:53;13.45;;;6.13;;
30533;SDS011;17318;52.390;9.754;2023-04-15T01:24:19;11.02;;;5.88;;
30533;SDS011;17318;52.390;9.754;2023-04-15T01:26:45;10.38;;;5.70;;
30533;SDS011;17318;52.390;9.754;2023-04-15T01:29:11;10.13;;;5.68;;
30533;SDS011;17318;52.390;9.754;2023-04-15T01:31:37;12.45;;;6.55;;
30533;SDS011;17318;52.390;9.754;2023-04-15T01:34:03;9.05;;;6.20;;
30533;SDS011;17318;52.390;9.754;2023-04-15T01:36:29;10.63;;;6.22;;
30533;SDS011;17318;52.390;9.754;2023-04-15T01:38:55;8.85;;;5.88;;
30533;SDS011;17318;52.390;9.754;2023-04-15T01:41:25;11.82;;;6.72;;
30533;SDS011;17318;52.390;9.754;2023-04-15T01:43:51;11.32;;;6.53;;
30533;SDS011;17318;52.390;9.754;2023-04-15T01:46:17;11.95;;;6.53;;
30533;SDS011;17318;52.390;9.754;2023-04-15T01:48:43;9.98;;;6.35;;
30533;SDS011;17318;52.390;9.754;2023-04-15T01:51:09;16.30;;;6.85;;
30533;SDS011;17318;52.390;9.754;2023-04-15T01:53:35;10.25;;;6.18;;
30533;SDS011;17318;52.390;9.754;2023-04-15T01:56:01;14.98;;;6.78;;
30533;SDS011;17318;52.390;9.754;2023-04-15T01:58:27;12.60;;;6.75;;
30533;SDS011;17318;52.390;9.754;2023-04-15T02:00:52;12.52;;;7.07;;
30533;SDS011;17318;52.390;9.754;2023-04-15T02:03:18;10.55;;;6.20;;
30533;SDS011;17318;52.390;9.754;2023-04-15T02:05:44;11.77;;;7.07;;
30533;SDS011;17318;52.390;9.754;2023-04-15T02:08:09;10.90;;;6.50;;
30533;SDS011;17318;52.390;9.754;2023-04-15T02:10:36;10.63;;;6.22;;
30533;SDS011;17318;52.390;9.754;2023-04-15T02:13:02;11.90;;;6.60;;
30533;SDS011;17318;52.390;9.754;2023-04-15T02:15:28;13.82;;;6.93;;
30533;SDS011;17318;52.390;9.754;2023-04-15T02:17:54;11.82;;;6.85;;
30533;SDS011;17318;52.390;9.754;2023-04-15T02:20:21;11.10;;;7.13;;
30533;SDS011;17318;52.390;9.754;2023-04-15T02:22:47;12.77;;;7.57;;
30533;SDS011;17318;52.390;9.754;2023-04-15T02:25:13;12.60;;;7.25;;
30533;SDS011;17318;52.390;9.754;2023-04-15T02:27:39;14.60;;;7.78;;
30533;SDS011;17318;52.390;9.754;2023-04-15T02:30:05;10.18;;;7.07;;
30533;SDS011;17318;52.390;9.754;2023-04-15T02:32:31;11.98;;;6.95;;
30533;SDS011;17318;52.390;9.754;2023-04-15T02:35:03;10.65;;;7.07;;
30533;SDS011;17318;52.390;9.754;2023-04-15T02:37:31;12.20;;;8.05;;
30533;SDS011;17318;52.390;9.754;2023-04-15T02:40:01;13.07;;;7.85;;
30533;SDS011;17318;52.390;9.754;2023-04-15T02:42:27;15.50;;;9.15;;
30533;SDS011;17318;52.390;9.754;2023-04-15T02:44:54;14.18;;;7.80;;
30533;SDS011;17318;52.390;9.754;2023-04-15T02:47:20;16.30;;;9.55;;
30533;SDS011;17318;52.390;9.754;2023-04-15T02:49:46;15.07;;;8.95;;
30533;SDS011;17318;52.390;9.754;2023-04-15T02:52:11;13.98;;;7.57;;
30533;SDS011;17318;52.390;9.754;2023-04-15T02:54:37;14.25;;;7.75;;
30533;SDS011;17318;52.390;9.754;2023-04-15T02:57:03;17.73;;;8.90;;
30533;SDS011;17318;52.390;9.754;2023-04-15T02:59:30;15.40;;;8.37;;
30533;SDS011;17318;52.390;9.754;2023-04-15T03:01:56;17.10;;;8.52;;
30533;SDS011;17318;52.390;9.754;2023-04-15T03:04:24;17.60;;;9.38;;
30533;SDS011;17318;52.390;9.754;2023-04-15T03:06:50;17.00;;;9.45;;
30533;SDS011;17318;52.390;9.754;2023-04-15T03:09:16;14.90;;;9.40;;
30533;SDS011;17318;52.390;9.754;2023-04-15T03:11:42;17.17;;;9.57;;
30533;SDS011;17318;52.390;9.754;2023-04-15T03:14:08;12.65;;;8.43;;
30533;SDS011;17318;52.390;9.754;2023-04-15T03:16:33;17.35;;;9.73;;
30533;SDS011;17318;52.390;9.754;2023-04-15T03:18:59;19.52;;;10.45;;
30533;SDS011;17318;52.390;9.754;2023-04-15T03:21:25;18.35;;;10.70;;
30533;SDS011;17318;52.390;9.754;2023-04-15T03:23:51;15.95;;;9.48;;
30533;SDS011;17318;52.390;9.754;2023-04-15T03:26:25;19.70;;;9.93;;
30533;SDS011;17318;52.390;9.754;2023-04-15T03:28:55;22.05;;;10.68;;
30533;SDS011;17318;52.390;9.754;2023-04-15T03:31:21;18.83;;;10.68;;
30533;SDS011;17318;52.390;9.754;2023-04-15T03:33:47;19.10;;;10.90;;
30533;SDS011;17318;52.390;9.754;2023-04-15T03:36:13;18.95;;;10.65;;
30533;SDS011;17318;52.390;9.754;2023-04-15T03:38:38;17.77;;;10.75;;
30533;SDS011;17318;52.390;9.754;2023-04-15T03:41:04;18.20;;;10.73;;
30533;SDS011;17318;52.390;9.754;2023-04-15T03:43:30;19.15;;;10.40;;
30533;SDS011;17318;52.390;9.754;2023-04-15T03:45:56;18.92;;;9.95;;
30533;SDS011;17318;52.390;9.754;2023-04-15T03:48:22;18.05;;;10.32;;
30533;SDS011;17318;52.390;9.754;2023-04-15T03:50:47;18.70;;;10.45;;
30533;SDS011;17318;52.390;9.754;2023-04-15T03:53:13;18.92;;;10.95;;
30533;SDS011;17318;52.390;9.754;2023-04-15T03:55:39;20.83;;;11.55;;
30533;SDS011;17318;52.390;9.754;2023-04-15T03:58:05;20.27;;;11.38;;
30533;SDS011;17318;52.390;9.754;2023-04-15T04:00:30;22.25;;;11.50;;
30533;SDS011;17318;52.390;9.754;2023-04-15T04:02:56;19.83;;;11.57;;
30533;SDS011;17318;52.390;9.754;2023-04-15T04:05:22;20.80;;;11.43;;
30533;SDS011;17318;52.390;9.754;2023-04-15T04:07:48;20.45;;;11.90;;
30533;SDS011;17318;52.390;9.754;2023-04-15T04:10:13;19.35;;;11.57;;
30533;SDS011;17318;52.390;9.754;2023-04-15T04:12:39;19.23;;;11.80;;
30533;SDS011;17318;52.390;9.754;2023-04-15T04:15:05;22.63;;;12.60;;
30533;SDS011;17318;52.390;9.754;2023-04-15T04:17:32;23.33;;;12.93;;
30533;SDS011;17318;52.390;9.754;2023-04-15T04:19:58;24.52;;;12.82;;
30533;SDS011;17318;52.390;9.754;2023-04-15T04:22:23;22.90;;;12.80;;
30533;SDS011;17318;52.390;9.754;2023-04-15T04:24:50;21.70;;;12.18;;
30533;SDS011;17318;52.390;9.754;2023-04-15T04:27:15;21.63;;;12.23;;
30533;SDS011;17318;52.390;9.754;2023-04-15T04:29:41;22.20;;;11.77;;
30533;SDS011;17318;52.390;9.754;2023-04-15T04:32:07;23.80;;;13.32;;
30533;SDS011;17318;52.390;9.754;2023-04-15T04:34:32;20.30;;;12.70;;
30533;SDS011;17318;52.390;9.754;2023-04-15T04:36:58;23.83;;;13.25;;
30533;SDS011;17318;52.390;9.754;2023-04-15T04:39:24;22.70;;;12.70;;
30533;SDS011;17318;52.390;9.754;2023-04-15T04:41:49;25.90;;;13.52;;
30533;SDS011;17318;52.390;9.754;2023-04-15T04:44:16;26.15;;;13.85;;
30533;SDS011;17318;52.390;9.754;2023-04-15T04:46:42;27.05;;;13.93;;
30533;SDS011;17318;52.390;9.754;2023-04-15T04:49:08;21.23;;;13.43;;
30533;SDS011;17318;52.390;9.754;2023-04-15T04:51:33;20.30;;;11.48;;
30533;SDS011;17318;52.390;9.754;2023-04-15T04:53:59;21.90;;;12.57;;
30533;SDS011;17318;52.390;9.754;2023-04-15T04:56:25;22.58;;;12.50;;
30533;SDS011;17318;52.390;9.754;2023-04-15T04:58:51;21.63;;;12.98;;
30533;SDS011;17318;52.390;9.754;2023-04-15T05:01:17;23.40;;;13.10;;
30533;SDS011;17318;52.390;9.754;2023-04-15T05:03:42;23.80;;;13.60;;
30533;SDS011;17318;52.390;9.754;2023-04-15T05:06:08;22.80;;;12.82;;
30533;SDS011;17318;52.390;9.754;2023-04-15T05:08:34;23.88;;;12.65;;
30533;SDS011;17318;52.390;9.754;2023-04-15T05:11:00;24.70;;;12.65;;
30533;SDS011;17318;52.390;9.754;2023-04-15T05:13:27;22.88;;;12.52;;
30533;SDS011;17318;52.390;9.754;2023-04-15T05:15:54;23.35;;;13.13;;
30533;SDS011;17318;52.390;9.754;2023-04-15T05:18:20;23.73;;;12.90;;
30533;SDS011;17318;52.390;9.754;2023-04-15T05:20:45;22.45;;;13.13;;
30533;SDS011;17318;52.390;9.754;2023-04-15T05:23:11;21.50;;;13.05;;
30533;SDS011;17318;52.390;9.754;2023-04-15T05:25:37;23.30;;;12.52;;
30533;SDS011;17318;52.390;9.754;2023-04-15T05:28:03;21.02;;;12.57;;
30533;SDS011;17318;52.390;9.754;2023-04-15T05:30:28;25.75;;;13.00;;
30533;SDS011;17318;52.390;9.754;2023-04-15T05:32:54;23.23;;;12.55;;
30533;SDS011;17318;52.390;9.754;2023-04-15T05:35:20;22.52;;;13.52;;
30533;SDS011;17318;52.390;9.754;2023-04-15T05:37:46;20.67;;;12.35;;
30533;SDS011;17318;52.390;9.754;2023-04-15T05:40:11;21.95;;;12.13;;
30533;SDS011;17318;52.390;9.754;2023-04-15T05:42:37;20.60;;;12.88;;
30533;SDS011;17318;52.390;9.754;2023-04-15T05:45:03;20.70;;;11.60;;
30533;SDS011;17318;52.390;9.754;2023-04-15T05:47:33;20.40;;;11.73;;
30533;SDS011;17318;52.390;9.754;2023-04-15T05:50:02;19.77;;;11.70;;
30533;SDS011;17318;52.390;9.754;2023-04-15T05:52:28;18.27;;;11.38;;
30533;SDS011;17318;52.390;9.754;2023-04-15T05:54:55;19.88;;;12.02;;
30533;SDS011;17318;52.390;9.754;2023-04-15T05:57:21;21.10;;;12.02;;
30533;SDS011;17318;52.390;9.754;2023-04-15T05:59:47;22.63;;;11.25;;
30533;SDS011;17318;52.390;9.754;2023-04-15T06:02:13;19.42;;;10.93;;
30533;SDS011;17318;52.390;9.754;2023-04-15T06:04:38;16.63;;;9.75;;
30533;SDS011;17318;52.390;9.754;2023-04-15T06:07:04;18.50;;;9.57;;
30533;SDS011;17318;52.390;9.754;2023-04-15T06:09:30;16.70;;;10.45;;
30533;SDS011;17318;52.390;9.754;2023-04-15T06:11:56;17.60;;;9.85;;
30533;SDS011;17318;52.390;9.754;2023-04-15T06:14:22;15.43;;;9.63;;
30533;SDS011;17318;52.390;9.754;2023-04-15T06:16:48;16.15;;;9.75;;
30533;SDS011;17318;52.390;9.754;2023-04-15T06:19:14;14.02;;;8.68;;
30533;SDS011;17318;52.390;9.754;2023-04-15T06:21:40;14.27;;;9.02;;
30533;SDS011;17318;52.390;9.754;2023-04-15T06:24:06;13.52;;;8.52;;
30533;SDS011;17318;52.390;9.754;2023-04-15T06:26:31;12.90;;;8.43;;
30533;SDS011;17318;52.390;9.754;2023-04-15T06:28:57;13.60;;;8.25;;
30533;SDS011;17318;52.390;9.754;2023-04-15T06:31:23;12.68;;;8.15;;
30533;SDS011;17318;52.390;9.754;2023-04-15T06:33:48;13.68;;;8.27;;
30533;SDS011;17318;52.390;9.754;2023-04-15T06:36:14;16.70;;;8.00;;
30533;SDS011;17318;52.390;9.754;2023-04-15T06:38:41;15.00;;;8.20;;
30533;SDS011;17318;52.390;9.754;2023-04-15T06:41:07;12.57;;;7.60;;
30533;SDS011;17318;52.390;9.754;2023-04-15T06:43:33;13.23;;;6.95;;
30533;SDS011;17318;52.390;9.754;2023-04-15T06:45:59;16.15;;;7.75;;
30533;SDS011;17318;52.390;9.754;2023-04-15T06:48:25;9.73;;;6.75;;
30533;SDS011;17318;52.390;9.754;2023-04-15T06:50:51;8.75;;;6.32;;
30533;SDS011;17318;52.390;9.754;2023-04-15T06:53:17;10.85;;;6.68;;
30533;SDS011;17318;52.390;9.754;2023-04-15T06:55:43;12.98;;;7.28;;
30533;SDS011;17318;52.390;9.754;2023-04-15T06:58:08;9.23;;;6.25;;
30533;SDS011;17318;52.390;9.754;2023-04-15T07:00:34;9.93;;;5.88;;
30533;SDS011;17318;52.390;9.754;2023-04-15T07:05:29;9.30;;;5.60;;
30533;SDS011;17318;52.390;9.754;2023-04-15T07:07:56;8.65;;;5.93;;
30533;SDS011;17318;52.390;9.754;2023-04-15T07:10:22;11.20;;;6.63;;
30533;SDS011;17318;52.390;9.754;2023-04-15T07:12:48;7.63;;;4.85;;
30533;SDS011;17318;52.390;9.754;2023-04-15T07:15:15;11.13;;;6.07;;
30533;SDS011;17318;52.390;9.754;2023-04-15T07:17:41;6.47;;;4.35;;
30533;SDS011;17318;52.390;9.754;2023-04-15T07:20:09;6.28;;;4.55;;
30533;SDS011;17318;52.390;9.754;2023-04-15T07:22:36;7.55;;;4.82;;
30533;SDS011;17318;52.390;9.754;2023-04-15T07:25:02;7.40;;;4.63;;
30533;SDS011;17318;52.390;9.754;2023-04-15T07:27:28;7.95;;;4.72;;
30533;SDS011;17318;52.390;9.754;2023-04-15T07:29:55;7.80;;;4.50;;
30533;SDS011;17318;52.390;9.754;2023-04-15T07:32:21;31.88;;;15.95;;
30533;SDS011;17318;52.390;9.754;2023-04-15T07:34:46;7.43;;;4.65;;
30533;SDS011;17318;52.390;9.754;2023-04-15T07:37:12;7.28;;;4.85;;
30533;SDS011;17318;52.390;9.754;2023-04-15T07:39:38;6.95;;;4.20;;
30533;SDS011;17318;52.390;9.754;2023-04-15T07:42:03;7.93;;;5.07;;
30533;SDS011;17318;52.390;9.754;2023-04-15T07:44:29;6.55;;;4.50;;
30533;SDS011;17318;52.390;9.754;2023-04-15T07:46:55;5.93;;;3.90;;
30533;SDS011;17318;52.390;9.754;2023-04-15T07:49:21;5.78;;;4.20;;
30533;SDS011;17318;52.390;9.754;2023-04-15T07:51:47;7.43;;;4.90;;
30533;SDS011;17318;52.390;9.754;2023-04-15T07:54:14;7.47;;;4.72;;
30533;SDS011;17318;52.390;9.754;2023-04-15T07:56:40;7.68;;;4.20;;
30533;SDS011;17318;52.390;9.754;2023-04-15T07:59:06;5.53;;;3.63;;
30533;SDS011;17318;52.390;9.754;2023-04-15T08:01:32;5.15;;;3.30;;
30533;SDS011;17318;52.390;9.754;2023-04-15T08:04:00;6.70;;;3.95;;
30533;SDS011;17318;52.390;9.754;2023-04-15T08:06:26;5.28;;;3.53;;
30533;SDS011;17318;52.390;9.754;2023-04-15T08:08:52;6.47;;;3.67;;
30533;SDS011;17318;52.390;9.754;2023-04-15T08:11:19;6.25;;;3.55;;
30533;SDS011;17318;52.390;9.754;2023-04-15T08:13:45;5.10;;;3.53;;
30533;SDS011;17318;52.390;9.754;2023-04-15T08:18:50;6.18;;;3.25;;
30533;SDS011;17318;52.390;9.754;2023-04-15T08:21:17;4.63;;;3.20;;
30533;SDS011;17318;52.390;9.754;2023-04-15T08:23:44;5.30;;;2.97;;
30533;SDS011;17318;52.390;9.754;2023-04-15T08:26:11;3.38;;;2.60;;
30533;SDS011;17318;52.390;9.754;2023-04-15T08:28:37;4.85;;;3.10;;
30533;SDS011;17318;52.390;9.754;2023-04-15T08:31:04;4.70;;;2.90;;
30533;SDS011;17318;52.390;9.754;2023-04-15T08:33:30;3.88;;;2.70;;
30533;SDS011;17318;52.390;9.754;2023-04-15T08:35:55;5.43;;;3.05;;
30533;SDS011;17318;52.390;9.754;2023-04-15T08:38:21;3.42;;;2.60;;
30533;SDS011;17318;52.390;9.754;2023-04-15T08:40:48;4.53;;;3.08;;
30533;SDS011;17318;52.390;9.754;2023-04-15T08:43:17;4.03;;;2.80;;
30533;SDS011;17318;52.390;9.754;2023-04-15T08:45:52;4.65;;;3.17;;
30533;SDS011;17318;52.390;9.754;2023-04-15T08:48:19;4.20;;;2.80;;
30533;SDS011;17318;52.390;9.754;2023-04-15T08:50:46;3.17;;;2.20;;
30533;SDS011;17318;52.390;9.754;2023-04-15T08:53:13;4.18;;;2.92;;
30533;SDS011;17318;52.390;9.754;2023-04-15T08:55:43;6.20;;;3.13;;
30533;SDS011;17318;52.390;9.754;2023-04-15T08:58:13;3.15;;;2.40;;
30533;SDS011;17318;52.390;9.754;2023-04-15T09:00:40;4.90;;;2.60;;
30533;SDS011;17318;52.390;9.754;2023-04-15T09:03:06;3.75;;;2.95;;
30533;SDS011;17318;52.390;9.754;2023-04-15T09:05:33;3.88;;;2.83;;
30533;SDS011;17318;52.390;9.754;2023-04-15T09:08:00;4.13;;;2.97;;
30533;SDS011;17318;52.390;9.754;2023-04-15T09:10:26;3.80;;;2.72;;
30533;SDS011;17318;52.390;9.754;2023-04-15T09:12:55;3.63;;;2.83;;
30533;SDS011;17318;52.390;9.754;2023-04-15T09:15:23;4.00;;;2.80;;
30533;SDS011;17318;52.390;9.754;2023-04-15T09:17:51;4.95;;;3.10;;
30533;SDS011;17318;52.390;9.754;2023-04-15T09:20:17;4.95;;;3.08;;
30533;SDS011;17318;52.390;9.754;2023-04-15T09:22:44;5.82;;;3.63;;
30533;SDS011;17318;52.390;9.754;2023-04-15T09:27:49;3.78;;;2.88;;
30533;SDS011;17318;52.390;9.754;2023-04-15T09:30:16;4.65;;;2.92;;
30533;SDS011;17318;52.390;9.754;2023-04-15T09:32:48;4.93;;;3.38;;
30533;SDS011;17318;52.390;9.754;2023-04-15T09:35:18;6.70;;;3.58;;
30533;SDS011;17318;52.390;9.754;2023-04-15T09:37:44;5.93;;;4.15;;
30533;SDS011;17318;52.390;9.754;2023-04-15T09:40:10;5.15;;;3.30;;
30533;SDS011;17318;52.390;9.754;2023-04-15T09:42:39;7.03;;;4.47;;
30533;SDS011;17318;52.390;9.754;2023-04-15T09:45:20;5.65;;;3.45;;
30533;SDS011;17318;52.390;9.754;2023-04-15T09:47:46;7.38;;;4.47;;
30533;SDS011;17318;52.390;9.754;2023-04-15T09:50:12;7.78;;;4.88;;
30533;SDS011;17318;52.390;9.754;2023-04-15T09:52:42;8.38;;;5.18;;
30533;SDS011;17318;52.390;9.754;2023-04-15T09:55:09;7.10;;;4.00;;
30533;SDS011;17318;52.390;9.754;2023-04-15T09:57:36;9.97;;;4.83;;
30533;SDS011;17318;52.390;9.754;2023-04-15T10:00:03;9.43;;;5.23;;
30533;SDS011;17318;52.390;9.754;2023-04-15T10:02:32;8.10;;;4.82;;
30533;SDS011;17318;52.390;9.754;2023-04-15T10:04:58;8.23;;;4.55;;
30533;SDS011;17318;52.390;9.754;2023-04-15T10:07:25;9.32;;;5.78;;
30533;SDS011;17318;52.390;9.754;2023-04-15T10:09:51;9.02;;;5.13;;
30533;SDS011;17318;52.390;9.754;2023-04-15T10:12:18;11.13;;;6.20;;
30533;SDS011;17318;52.390;9.754;2023-04-15T10:14:47;12.90;;;6.18;;
30533;SDS011;17318;52.390;9.754;2023-04-15T10:17:21;12.35;;;6.10;;
30533;SDS011;17318;52.390;9.754;2023-04-15T10:19:47;11.73;;;6.35;;
30533;SDS011;17318;52.390;9.754;2023-04-15T10:22:14;16.37;;;6.93;;
30533;SDS011;17318;52.390;9.754;2023-04-15T10:24:41;13.05;;;7.82;;
30533;SDS011;17318;52.390;9.754;2023-04-15T10:27:09;16.00;;;8.18;;
30533;SDS011;17318;52.390;9.754;2023-04-15T10:29:35;17.10;;;8.02;;
30533;SDS011;17318;52.390;9.754;2023-04-15T10:32:01;17.85;;;8.75;;
30533;SDS011;17318;52.390;9.754;2023-04-15T10:34:27;18.02;;;9.15;;
30533;SDS011;17318;52.390;9.754;2023-04-15T10:37:00;18.13;;;9.25;;
30533;SDS011;17318;52.390;9.754;2023-04-15T10:42:05;25.52;;;11.38;;
30533;SDS011;17318;52.390;9.754;2023-04-15T10:44:42;20.70;;;10.82;;
30533;SDS011;17318;52.390;9.754;2023-04-15T10:47:16;21.27;;;11.70;;
30533;SDS011;17318;52.390;9.754;2023-04-15T10:49:47;24.00;;;11.00;;
30533;SDS011;17318;52.390;9.754;2023-04-15T10:52:15;23.50;;;12.18;;
30533;SDS011;17318;52.390;9.754;2023-04-15T10:54:42;24.38;;;12.05;;
30533;SDS011;17318;52.390;9.754;2023-04-15T10:57:13;23.80;;;12.48;;
30533;SDS011;17318;52.390;9.754;2023-04-15T11:05:15;34.13;;;18.55;;
30533;SDS011;17318;52.390;9.754;2023-04-15T11:12:36;29.13;;;14.55;;
30533;SDS011;17318;52.390;9.754;2023-04-15T11:17:49;29.88;;;15.65;;
30533;SDS011;17318;52.390;9.754;2023-04-15T11:20:16;34.70;;;15.57;;
30533;SDS011;17318;52.390;9.754;2023-04-15T11:22:52;33.40;;;16.90;;
30533;SDS011;17318;52.390;9.754;2023-04-15T11:25:24;35.95;;;17.08;;
30533;SDS011;17318;52.390;9.754;2023-04-15T11:27:52;34.85;;;17.42;;
30533;SDS011;17318;52.390;9.754;2023-04-15T11:30:23;40.72;;;17.95;;
30533;SDS011;17318;52.390;9.754;2023-04-15T11:32:50;36.42;;;18.05;;
30533;SDS011;17318;52.390;9.754;2023-04-15T11:35:17;32.78;;;17.40;;
30533;SDS011;17318;52.390;9.754;2023-04-15T11:37:46;38.33;;;17.95;;
30533;SDS011;17318;52.390;9.754;2023-04-15T11:40:16;37.00;;;17.13;;
30533;SDS011;17318;52.390;9.754;2023-04-15T11:43:02;45.00;;;17.88;;
30533;SDS011;17318;52.390;9.754;2023-04-15T11:45:43;39.58;;;19.25;;
30533;SDS011;17318;52.390;9.754;2023-04-15T11:48:17;40.17;;;19.25;;
30533;SDS011;17318;52.390;9.754;2023-04-15T11:50:43;42.17;;;21.02;;
30533;SDS011;17318;52.390;9.754;2023-04-15T11:53:10;44.45;;;21.17;;
30533;SDS011;17318;52.390;9.754;2023-04-15T11:55:45;47.35;;;21.40;;
30533;SDS011;17318;52.390;9.754;2023-04-15T11:58:17;44.72;;;21.20;;
30533;SDS011;17318;52.390;9.754;2023-04-15T12:06:09;48.65;;;23.60;;
30533;SDS011;17318;52.390;9.754;2023-04-15T12:14:18;49.60;;;24.15;;
30533;SDS011;17318;52.390;9.754;2023-04-15T12:16:41;58.35;;;26.85;;
30533;SDS011;17318;52.390;9.754;2023-04-15T12:19:13;49.65;;;24.38;;
30533;SDS011;17318;52.390;9.754;2023-04-15T12:21:41;52.47;;;24.92;;
30533;SDS011;17318;52.390;9.754;2023-04-15T12:24:09;57.25;;;26.88;;
30533;SDS011;17318;52.390;9.754;2023-04-15T12:26:37;53.55;;;26.42;;
30533;SDS011;17318;52.390;9.754;2023-04-15T12:29:10;56.85;;;27.42;;
30533;SDS011;17318;52.390;9.754;2023-04-15T12:31:45;54.57;;;26.63;;
30533;SDS011;17318;52.390;9.754;2023-04-15T12:34:28;61.60;;;26.88;;
30533;SDS011;17318;52.390;9.754;2023-04-15T12:36:55;58.15;;;27.75;;
30533;SDS011;17318;52.390;9.754;2023-04-15T12:39:22;57.40;;;27.17;;
30533;SDS011;17318;52.390;9.754;2023-04-15T12:41:49;60.87;;;28.93;;
30533;SDS011;17318;52.390;9.754;2023-04-15T12:44:16;61.13;;;28.25;;
30533;SDS011;17318;52.390;9.754;2023-04-15T12:46:42;61.33;;;27.23;;
30533;SDS011;17318;52.390;9.754;2023-04-15T12:49:08;58.83;;;29.02;;
30533;SDS011;17318;52.390;9.754;2023-04-15T12:51:34;57.58;;;26.95;;
30533;SDS011;17318;52.390;9.754;2023-04-15T12:54:00;57.33;;;28.20;;
30533;SDS011;17318;52.390;9.754;2023-04-15T12:56:25;61.42;;;29.50;;
30533;SDS011;17318;52.390;9.754;2023-04-15T12:58:51;60.38;;;29.65;;
30533;SDS011;17318;52.390;9.754;2023-04-15T13:01:17;58.75;;;29.30;;
30533;SDS011;17318;52.390;9.754;2023-04-15T13:03:43;53.25;;;27.27;;
30533;SDS011;17318;52.390;9.754;2023-04-15T13:06:09;58.42;;;27.42;;
30533;SDS011;17318;52.390;9.754;2023-04-15T13:08:35;55.75;;;27.38;;
30533;SDS011;17318;52.390;9.754;2023-04-15T13:11:04;56.05;;;27.90;;
30533;SDS011;17318;52.390;9.754;2023-04-15T13:13:29;57.13;;;29.08;;
30533;SDS011;17318;52.390;9.754;2023-04-15T13:15:56;51.67;;;25.98;;
30533;SDS011;17318;52.390;9.754;2023-04-15T13:18:22;52.53;;;25.80;;
30533;SDS011;17318;52.390;9.754;2023-04-15T13:20:48;50.70;;;25.60;;
30533;SDS011;17318;52.390;9.754;2023-04-15T13:23:14;53.38;;;27.20;;
30533;SDS011;17318;52.390;9.754;2023-04-15T13:25:40;51.50;;;24.10;;
30533;SDS011;17318;52.390;9.754;2023-04-15T13:28:06;44.53;;;23.27;;
30533;SDS011;17318;52.390;9.754;2023-04-15T13:30:32;51.78;;;25.77;;
30533;SDS011;17318;52.390;9.754;2023-04-15T13:32:57;50.50;;;23.98;;
30533;SDS011;17318;52.390;9.754;2023-04-15T13:35:23;45.58;;;23.83;;
30533;SDS011;17318;52.390;9.754;2023-04-15T13:37:49;42.60;;;22.42;;
30533;SDS011;17318;52.390;9.754;2023-04-15T13:40:15;42.45;;;22.40;;
30533;SDS011;17318;52.390;9.754;2023-04-15T13:42:41;41.72;;;21.65;;
30533;SDS011;17318;52.390;9.754;2023-04-15T13:45:07;43.35;;;22.33;;
30533;SDS011;17318;52.390;9.754;2023-04-15T13:47:33;43.15;;;22.67;;
30533;SDS011;17318;52.390;9.754;2023-04-15T13:49:58;40.72;;;22.00;;
30533;SDS011;17318;52.390;9.754;2023-04-15T13:52:24;40.40;;;22.10;;
30533;SDS011;17318;52.390;9.754;2023-04-15T13:54:50;39.58;;;21.17;;
30533;SDS011;17318;52.390;9.754;2023-04-15T13:57:16;35.85;;;18.73;;
30533;SDS011;17318;52.390;9.754;2023-04-15T13:59:41;37.58;;;18.88;;
30533;SDS011;17318;52.390;9.754;2023-04-15T14:02:08;37.60;;;20.42;;
30533;SDS011;17318;52.390;9.754;2023-04-15T14:04:33;34.70;;;18.65;;
30533;SDS011;17318;52.390;9.754;2023-04-15T14:06:59;35.13;;;18.08;;
30533;SDS011;17318;52.390;9.754;2023-04-15T14:09:25;32.60;;;18.65;;
30533;SDS011;17318;52.390;9.754;2023-04-15T14:11:51;32.67;;;18.35;;
30533;SDS011;17318;52.390;9.754;2023-04-15T14:14:17;34.38;;;18.17;;
30533;SDS011;17318;52.390;9.754;2023-04-15T14:16:42;33.20;;;18.08;;
30533;SDS011;17318;52.390;9.754;2023-04-15T14:19:08;32.30;;;17.95;;
30533;SDS011;17318;52.390;9.754;2023-04-15T14:21:34;35.22;;;17.55;;
30533;SDS011;17318;52.390;9.754;2023-04-15T14:23:59;30.63;;;16.35;;
30533;SDS011;17318;52.390;9.754;2023-04-15T14:26:25;29.77;;;16.63;;
30533;SDS011;17318;52.390;9.754;2023-04-15T14:28:51;29.08;;;16.70;;
30533;SDS011;17318;52.390;9.754;2023-04-15T14:31:17;26.02;;;15.52;;
30533;SDS011;17318;52.390;9.754;2023-04-15T14:33:43;30.98;;;15.80;;
30533;SDS011;17318;52.390;9.754;2023-04-15T14:36:09;29.33;;;16.75;;
30533;SDS011;17318;52.390;9.754;2023-04-15T14:38:35;27.15;;;15.65;;
30533;SDS011;17318;52.390;9.754;2023-04-15T14:41:02;31.45;;;15.98;;
30533;SDS011;17318;52.390;9.754;2023-04-15T14:43:28;28.05;;;16.13;;
30533;SDS011;17318;52.390;9.754;2023-04-15T14:45:54;25.67;;;15.68;;
30533;SDS011;17318;52.390;9.754;2023-04-15T14:48:20;24.40;;;15.18;;
30533;SDS011;17318;52.390;9.754;2023-04-15T14:50:46;27.63;;;15.30;;
30533;SDS011;17318;52.390;9.754;2023-04-15T14:53:11;23.60;;;13.82;;
30533;SDS011;17318;52.390;9.754;2023-04-15T14:55:37;28.67;;;15.00;;
30533;SDS011;17318;52.390;9.754;2023-04-15T14:58:02;26.58;;;15.35;;
30533;SDS011;17318;52.390;9.754;2023-04-15T15:00:28;24.25;;;14.27;;
30533;SDS011;17318;52.390;9.754;2023-04-15T15:02:54;28.33;;;16.30;;
30533;SDS011;17318;52.390;9.754;2023-04-15T15:05:20;28.88;;;14.73;;